Time;durP1;ratioP1;P1;durP2;ratioP2;P2;SDS_P1;SDS_P2;PMS_P1;PMS_P2;Temp;Humidity;BMP_temperature;BMP_pressure;BME280_temperature;BME280_humidity;BME280_pressure;Samples;Min_cycle;Max_cycle;Signal;HPM_P1;HPM_P2
2022/09/15 00:01:36;;;;;;;;;7.40;5.20;;;;;27.12;38.48;98715.81;5076647;28;8846;-85
2022/09/15 00:04:04;;;;;;;;;5.40;5.40;;;;;27.31;38.07;98714.34;5087132;28;9001;-85
2022/09/15 00:06:36;;;;;;;;;7.80;7.00;;;;;27.19;38.32;98722.38;5103556;28;8858;-84
2022/09/15 00:09:05;;;;;;;;;6.60;6.60;;;;;27.21;37.92;98720.41;5070769;28;9732;-84
2022/09/15 00:11:36;;;;;;;;;5.00;5.00;;;;;27.14;38.30;98721.91;5076644;28;8855;-84
2022/09/15 00:14:07;;;;;;;;;6.60;5.80;;;;;27.12;38.25;98712.31;5107168;28;8855;-83
2022/09/15 00:16:37;;;;;;;;;6.00;5.00;;;;;27.04;38.44;98707.59;5091095;28;8844;-85
2022/09/15 00:19:06;;;;;;;;;7.60;7.40;;;;;27.17;38.36;98712.78;5107046;28;8859;-84
2022/09/15 00:21:39;;;;;;;;;8.60;7.60;;;;;27.11;38.40;98716.81;5073477;28;8835;-84
2022/09/15 00:24:09;;;;;;;;;6.20;6.20;;;;;26.99;38.50;98715.13;5089967;28;8891;-84
2022/09/15 00:26:38;;;;;;;;;6.60;6.60;;;;;27.10;38.59;98715.09;5123942;27;8855;-86
2022/09/15 00:29:08;;;;;;;;;7.20;5.20;;;;;27.15;38.06;98714.75;5104092;27;8854;-85
2022/09/15 00:31:36;;;;;;;;;6.20;5.60;;;;;27.17;38.41;98716.28;5074956;28;8851;-84
2022/09/15 00:34:06;;;;;;;;;7.00;7.00;;;;;27.19;38.26;98705.47;5073269;28;8860;-83
2022/09/15 00:36:36;;;;;;;;;5.40;5.00;;;;;27.19;38.22;98711.66;5072760;28;8856;-85
2022/09/15 00:39:05;;;;;;;;;4.80;4.80;;;;;27.13;38.19;98705.97;5090226;28;8867;-84
2022/09/15 00:41:34;;;;;;;;;5.00;5.00;;;;;26.97;38.54;98698.34;5107604;28;8843;-85
2022/09/15 00:44:05;;;;;;;;;4.60;4.60;;;;;27.10;38.18;98706.22;5081508;28;8885;-85
2022/09/15 00:46:36;;;;;;;;;6.00;6.00;;;;;26.80;38.64;98703.25;5104425;28;8874;-83
2022/09/15 00:49:09;;;;;;;;;6.80;6.00;;;;;26.72;38.83;98700.34;5091595;28;8941;-84
2022/09/15 00:51:45;;;;;;;;;6.80;5.80;;;;;26.73;38.72;98710.09;5108517;28;8847;-85
2022/09/15 00:54:25;;;;;;;;;5.20;4.60;;;;;27.14;38.02;98699.63;5075916;28;8845;-83
2022/09/15 00:56:57;;;;;;;;;8.60;6.20;;;;;27.09;37.60;98693.81;5046863;28;8872;-87
2022/09/15 00:59:30;;;;;;;;;6.80;4.80;;;;;27.15;37.48;98704.03;5056230;28;8852;-85
2022/09/15 01:02:05;;;;;;;;;4.00;4.00;;;;;26.94;38.10;98701.31;5076110;28;8848;-84
2022/09/15 01:04:34;;;;;;;;;6.40;5.40;;;;;27.08;37.78;98703.66;5067613;28;9648;-85
2022/09/15 01:07:08;;;;;;;;;5.20;4.60;;;;;27.16;37.50;98697.69;5035006;28;9578;-87
2022/09/15 01:09:41;;;;;;;;;3.20;2.20;;;;;27.16;37.50;98689.66;5051614;28;8864;-85
2022/09/15 01:12:10;;;;;;;;;4.80;4.20;;;;;27.12;37.46;98693.56;5067597;28;8844;-86
2022/09/15 01:14:39;;;;;;;;;4.20;4.20;;;;;27.19;37.32;98692.09;5050498;28;9729;-84
2022/09/15 01:17:20;;;;;;;;;4.40;4.40;;;;;27.22;37.37;98689.13;5067738;28;8926;-85
2022/09/15 01:20:22;;;;;;;;;3.20;3.20;;;;;27.06;37.40;98696.75;5070217;28;8837;-86
2022/09/15 01:23:11;;;;;;;;;3.00;3.00;;;;;27.15;37.10;98702.19;5070871;28;8862;-85
2022/09/15 01:26:15;;;;;;;;;3.80;3.80;;;;;27.36;36.91;98696.06;5080463;28;8878;-87
2022/09/15 01:29:14;;;;;;;;;4.20;4.20;;;;;27.26;36.41;98693.31;5087342;28;8866;-85
2022/09/15 01:34:44;;;;;;;;;4.80;4.80;;;;;27.13;36.40;98695.28;5099637;28;8862;-83
2022/09/15 01:37:21;;;;;;;;;5.40;4.00;;;;;27.01;36.83;98689.09;5101233;27;8931;-86
2022/09/15 01:39:53;;;;;;;;;4.00;3.20;;;;;26.87;36.81;98684.88;5081789;28;8870;-85
2022/09/15 01:42:25;;;;;;;;;3.00;3.00;;;;;26.79;36.69;98696.22;5073504;28;8874;-85
2022/09/15 01:44:58;;;;;;;;;5.00;5.00;;;;;26.92;36.47;98684.50;5072711;28;8873;-87
2022/09/15 01:47:30;;;;;;;;;4.60;4.60;;;;;27.08;36.17;98682.25;5064641;28;8854;-85
2022/09/15 01:50:03;;;;;;;;;3.60;3.60;;;;;27.09;36.19;98688.47;5054129;28;8866;-85
2022/09/15 01:52:33;;;;;;;;;5.00;4.00;;;;;27.10;36.22;98682.13;5090844;28;8847;-85
2022/09/15 01:55:05;;;;;;;;;3.00;3.00;;;;;27.17;35.96;98672.63;5106230;28;8878;-84
2022/09/15 01:57:34;;;;;;;;;3.20;3.00;;;;;27.14;35.90;98672.88;5105256;28;8852;-86
2022/09/15 02:00:03;;;;;;;;;3.40;3.40;;;;;27.21;35.60;98669.56;5085045;28;8847;-82
2022/09/15 02:02:39;;;;;;;;;5.00;3.80;;;;;27.30;35.67;98672.50;5085115;28;8838;-85
2022/09/15 02:05:15;;;;;;;;;3.80;2.80;;;;;27.44;35.34;98671.31;5068758;28;8842;-84
2022/09/15 02:07:51;;;;;;;;;5.20;5.20;;;;;27.49;35.16;98669.94;5069476;28;8881;-85
2022/09/15 02:10:26;;;;;;;;;3.00;3.00;;;;;27.44;35.22;98658.78;5100222;28;8879;-84
2022/09/15 02:13:05;;;;;;;;;3.80;3.00;;;;;27.48;35.15;98656.69;5086045;28;8828;-84
2022/09/15 02:15:41;;;;;;;;;2.20;2.20;;;;;27.47;35.29;98654.97;5088493;28;8867;-84
2022/09/15 02:18:15;;;;;;;;;5.20;5.20;;;;;27.49;35.34;98653.03;5107160;28;8889;-84
2022/09/15 02:20:50;;;;;;;;;4.40;3.20;;;;;27.35;35.50;98651.50;5079799;28;9650;-85
2022/09/15 02:23:25;;;;;;;;;5.00;4.60;;;;;27.48;35.19;98654.84;5087092;28;8846;-85
2022/09/15 02:26:01;;;;;;;;;4.00;4.00;;;;;27.40;35.28;98646.63;5076844;28;8847;-83
2022/09/15 02:28:34;;;;;;;;;4.20;3.40;;;;;27.43;35.21;98641.03;5091711;28;8847;-84
2022/09/15 02:31:05;;;;;;;;;3.20;2.80;;;;;27.45;35.48;98644.41;5071030;28;8848;-85
2022/09/15 02:33:43;;;;;;;;;3.80;3.00;;;;;27.58;34.94;98639.72;5070837;28;8847;-83
2022/09/15 02:36:14;;;;;;;;;2.00;2.00;;;;;27.61;34.74;98633.22;5088439;28;8945;-84
2022/09/15 02:38:49;;;;;;;;;2.80;2.80;;;;;27.55;34.76;98637.28;5084583;28;8946;-85
2022/09/15 02:41:18;;;;;;;;;4.80;4.00;;;;;27.68;34.60;98638.94;5067614;28;8874;-84
2022/09/15 02:43:48;;;;;;;;;4.00;4.00;;;;;27.56;34.70;98640.81;5088280;28;8849;-85
2022/09/15 02:46:20;;;;;;;;;4.60;3.00;;;;;27.49;34.88;98635.13;5108106;28;8853;-85
2022/09/15 02:48:50;;;;;;;;;1.40;1.40;;;;;27.44;34.93;98629.31;5090093;28;9130;-84
2022/09/15 02:51:19;;;;;;;;;3.00;3.00;;;;;27.56;34.63;98630.09;5108769;28;8954;-85
2022/09/15 02:53:47;;;;;;;;;3.20;2.00;;;;;27.53;34.72;98622.34;5113190;28;9694;-86
2022/09/15 02:56:17;;;;;;;;;5.00;3.20;;;;;27.42;34.73;98624.09;5092548;27;8826;-85
2022/09/15 02:58:45;;;;;;;;;4.00;4.00;;;;;27.41;34.90;98622.41;5068947;28;8874;-85
2022/09/15 03:01:15;;;;;;;;;3.00;3.00;;;;;27.39;34.99;98615.47;5103860;28;8981;-85
2022/09/15 03:03:45;;;;;;;;;4.40;4.40;;;;;27.40;34.80;98614.50;5087892;28;8851;-85
2022/09/15 03:06:20;;;;;;;;;3.80;3.80;;;;;27.38;34.79;98616.47;5069510;28;8843;-85
2022/09/15 03:08:50;;;;;;;;;4.80;4.80;;;;;27.30;34.90;98610.91;5103233;28;8832;-83
2022/09/15 03:11:21;;;;;;;;;4.00;4.00;;;;;27.15;35.15;98608.50;5057753;28;8981;-84
2022/09/15 03:13:54;;;;;;;;;3.40;3.40;;;;;27.05;35.50;98599.53;5082375;28;8955;-83
2022/09/15 03:16:23;;;;;;;;;4.20;4.20;;;;;27.18;35.34;98608.25;5049659;28;8850;-83
2022/09/15 03:18:54;;;;;;;;;4.00;3.80;;;;;27.22;34.87;98595.44;5067264;28;8838;-85
2022/09/15 03:21:24;;;;;;;;;4.60;3.00;;;;;27.29;34.98;98604.69;5081964;28;8936;-83
2022/09/15 03:23:52;;;;;;;;;3.00;2.40;;;;;27.12;35.17;98581.16;5087783;28;8847;-84
2022/09/15 03:26:21;;;;;;;;;8.80;8.80;;;;;27.21;35.29;98586.56;5088377;28;8871;-84
2022/09/15 03:28:50;;;;;;;;;4.40;4.00;;;;;27.28;34.99;98586.06;5087789;28;8956;-84
2022/09/15 03:31:18;;;;;;;;;4.00;4.00;;;;;27.39;34.67;98589.56;5094777;28;8968;-81
2022/09/15 03:33:47;;;;;;;;;3.00;3.00;;;;;27.44;34.75;98589.16;5095599;28;8864;-83
2022/09/15 03:36:16;;;;;;;;;4.00;4.00;;;;;27.32;34.95;98580.34;5114818;28;8847;-83
2022/09/15 03:38:46;;;;;;;;;4.40;4.40;;;;;27.31;35.17;98578.63;5062952;28;8961;-83
2022/09/15 03:41:15;;;;;;;;;4.00;3.75;;;;;27.47;34.71;98580.88;5034324;28;1497653;-84
2022/09/15 03:43:43;;;;;;;;;5.80;4.40;;;;;27.22;35.23;98577.56;5003204;28;9490;-84
2022/09/15 03:46:12;;;;;;;;;3.20;3.20;;;;;27.50;34.64;98572.53;5070595;28;8900;-85
2022/09/15 03:48:41;;;;;;;;;3.40;3.40;;;;;27.57;34.63;98576.41;5084071;28;8827;-86
2022/09/15 03:51:11;;;;;;;;;6.00;4.20;;;;;27.53;34.49;98579.47;5073036;28;8871;-86
2022/09/15 03:53:41;;;;;;;;;7.80;7.80;;;;;27.50;34.36;98572.53;5089954;28;8859;-85
2022/09/15 03:56:18;;;;;;;;;6.40;6.00;;;;;27.33;34.65;98574.00;5095131;28;8859;-85
2022/09/15 03:58:47;;;;;;;;;3.20;3.00;;;;;27.07;35.06;98570.84;5070071;28;9603;-85
2022/09/15 04:01:17;;;;;;;;;4.00;4.00;;;;;27.18;34.97;98572.59;5053665;28;8862;-86
2022/09/15 04:03:47;;;;;;;;;5.80;5.00;;;;;27.19;35.15;98563.59;5086774;28;8854;-85
2022/09/15 04:06:20;;;;;;;;;4.80;4.40;;;;;27.25;34.87;98557.75;5080959;28;8839;-84
2022/09/15 04:08:49;;;;;;;;;5.60;5.60;;;;;27.34;34.54;98565.00;5091416;28;8847;-86
2022/09/15 04:11:21;;;;;;;;;4.00;4.00;;;;;27.32;34.61;98558.09;5103177;28;8892;-87
2022/09/15 04:13:50;;;;;;;;;13.00;13.00;;;;;27.45;34.05;98556.06;5086802;28;8873;-85
2022/09/15 04:16:21;;;;;;;;;10.40;10.40;;;;;27.60;34.08;98559.22;5070005;28;8862;-85
2022/09/15 04:18:51;;;;;;;;;5.40;5.40;;;;;27.70;34.00;98556.59;5053271;28;8881;-86
2022/09/15 04:21:23;;;;;;;;;8.60;5.20;;;;;27.59;33.98;98553.00;5070971;28;8838;-84
2022/09/15 04:23:53;;;;;;;;;9.00;7.60;;;;;27.63;33.91;98547.38;5070600;28;8842;-86
2022/09/15 04:26:28;;;;;;;;;3.80;3.80;;;;;27.71;33.66;98550.25;5071132;28;8850;-85
2022/09/15 04:28:57;;;;;;;;;7.80;7.20;;;;;27.57;34.08;98549.63;5055371;28;8976;-84
2022/09/15 04:31:32;;;;;;;;;4.80;4.00;;;;;27.57;34.08;98551.44;5085556;28;8877;-83
2022/09/15 04:34:01;;;;;;;;;5.00;4.40;;;;;27.57;33.87;98546.94;5081955;28;8979;-83
2022/09/15 04:36:30;;;;;;;;;6.60;6.60;;;;;27.34;34.04;98545.41;5078600;28;8872;-86
2022/09/15 04:38:59;;;;;;;;;4.80;4.80;;;;;27.32;34.33;98548.22;5069733;28;8909;-83
2022/09/15 04:41:29;;;;;;;;;6.00;5.00;;;;;27.33;34.30;98549.91;5086388;28;8881;-85
2022/09/15 04:43:58;;;;;;;;;5.60;5.20;;;;;27.33;34.26;98549.06;5087966;28;8950;-86
2022/09/15 04:46:27;;;;;;;;;7.00;6.40;;;;;27.28;34.34;98546.78;5072104;28;9002;-85
2022/09/15 04:48:57;;;;;;;;;7.40;6.40;;;;;27.48;34.23;98542.38;5086378;28;8834;-84
2022/09/15 04:51:26;;;;;;;;;4.60;4.60;;;;;27.35;34.21;98541.75;5070464;28;8858;-85
2022/09/15 04:53:55;;;;;;;;;6.80;6.00;;;;;27.51;33.97;98550.16;5086018;28;8870;-85
2022/09/15 04:56:25;;;;;;;;;5.20;4.40;;;;;27.48;34.12;98545.06;5070155;28;9089;-84
2022/09/15 04:58:57;;;;;;;;;6.20;5.60;;;;;27.66;33.92;98550.66;5069347;28;8881;-84
2022/09/15 05:01:34;;;;;;;;;5.40;5.40;;;;;27.87;33.58;98555.94;5069179;28;8850;-86
2022/09/15 05:04:04;;;;;;;;;4.00;4.00;;;;;27.97;33.21;98556.84;5069337;28;8854;-86
2022/09/15 05:06:35;;;;;;;;;5.60;4.60;;;;;27.97;33.36;98559.53;5086173;28;8969;-85
2022/09/15 05:09:06;;;;;;;;;6.20;6.20;;;;;27.97;33.22;98566.75;5068986;28;8896;-87
2022/09/15 05:11:38;;;;;;;;;7.00;7.00;;;;;28.13;33.07;98563.56;5084685;28;8870;-83
2022/09/15 05:14:08;;;;;;;;;8.00;8.00;;;;;28.15;33.03;98566.94;5053590;28;8842;-86
2022/09/15 05:16:38;;;;;;;;;8.20;7.40;;;;;28.31;32.90;98572.63;5069356;28;8862;-84
2022/09/15 05:19:07;;;;;;;;;7.00;7.00;;;;;28.38;32.93;98576.44;5057619;28;8824;-87
2022/09/15 05:21:36;;;;;;;;;6.00;6.00;;;;;28.38;32.98;98578.28;5105806;28;8952;-86
2022/09/15 05:24:05;;;;;;;;;10.20;7.00;;;;;28.35;32.94;98576.72;5037697;28;8982;-86
2022/09/15 05:26:34;;;;;;;;;6.80;6.80;;;;;28.47;32.73;98590.88;5072033;28;8874;-87
2022/09/15 05:29:03;;;;;;;;;9.00;9.00;;;;;28.59;32.73;98599.69;5073526;28;8982;-89
2022/09/15 05:31:34;;;;;;;;;12.40;11.80;;;;;28.48;33.07;98613.19;5068944;28;8850;-86
2022/09/15 05:34:06;;;;;;;;;8.20;7.00;;;;;28.51;33.00;98618.28;5067684;28;8946;-83
2022/09/15 05:36:34;;;;;;;;;8.00;5.40;;;;;28.64;32.66;98621.56;5080465;28;8855;-87
2022/09/15 05:39:04;;;;;;;;;5.20;4.60;;;;;28.70;33.11;98621.00;5071614;28;8892;-89
2022/09/15 05:41:32;;;;;;;;;9.80;8.60;;;;;28.82;32.75;98629.78;5088111;28;9632;-86
2022/09/15 05:44:01;;;;;;;;;9.00;8.60;;;;;28.86;32.28;98624.97;5087337;28;8857;-86
2022/09/15 05:46:30;;;;;;;;;17.40;15.80;;;;;28.68;33.26;98635.56;5055974;28;8881;-84
2022/09/15 05:49:00;;;;;;;;;20.80;18.20;;;;;28.48;33.39;98634.63;5091865;28;8894;-84
2022/09/15 05:51:29;;;;;;;;;12.00;10.00;;;;;28.50;32.75;98638.03;5094516;28;8868;-87
2022/09/15 05:53:58;;;;;;;;;22.20;21.40;;;;;28.72;32.90;98637.81;5097835;28;8860;-86
2022/09/15 05:56:27;;;;;;;;;19.20;18.20;;;;;28.85;33.08;98639.41;5095950;28;8848;-86
2022/09/15 05:58:55;;;;;;;;;17.60;16.80;;;;;28.99;32.84;98638.97;5055495;28;8848;-83
2022/09/15 06:01:26;;;;;;;;;12.00;11.00;;;;;29.14;32.54;98640.28;5069152;28;8857;-87
2022/09/15 06:03:56;;;;;;;;;15.60;14.80;;;;;29.29;33.13;98634.50;5049878;28;8846;-85
2022/09/15 06:06:27;;;;;;;;;14.00;12.60;;;;;29.43;33.00;98642.09;5057405;28;8960;-84
2022/09/15 06:08:57;;;;;;;;;10.40;10.40;;;;;29.57;32.39;98639.97;5066391;28;8847;-72
2022/09/15 06:11:29;;;;;;;;;15.00;14.00;;;;;29.68;32.56;98639.78;5064955;28;8828;-72
2022/09/15 06:13:59;;;;;;;;;11.20;11.20;;;;;29.82;31.81;98638.53;5064361;28;8852;-72
2022/09/15 06:16:31;;;;;;;;;11.20;10.00;;;;;29.93;31.83;98643.72;5070698;28;8962;-74
2022/09/15 06:19:00;;;;;;;;;7.20;7.20;;;;;29.78;31.79;98640.66;5076336;28;8844;-72
2022/09/15 06:21:32;;;;;;;;;6.00;6.00;;;;;29.65;31.84;98656.22;5064209;28;8946;-71
2022/09/15 06:24:04;;;;;;;;;10.20;9.20;;;;;29.66;31.83;98666.84;5064119;28;9668;-71
2022/09/15 06:26:33;;;;;;;;;7.00;7.00;;;;;29.72;31.74;98677.00;5064256;28;8974;-72
2022/09/15 06:29:04;;;;;;;;;8.80;8.60;;;;;29.92;31.86;98676.97;5064157;28;8863;-72
2022/09/15 06:31:34;;;;;;;;;14.00;11.20;;;;;30.03;31.19;98671.41;5084676;28;8836;-70
2022/09/15 06:34:04;;;;;;;;;10.20;8.20;;;;;30.16;31.39;98683.72;5086970;28;8830;-72
2022/09/15 06:36:36;;;;;;;;;9.00;8.40;;;;;30.28;31.53;98682.50;5067397;28;8881;-73
2022/09/15 06:39:05;;;;;;;;;10.40;9.40;;;;;30.38;31.79;98687.88;5067322;28;8842;-73
2022/09/15 06:41:34;;;;;;;;;10.80;10.00;;;;;30.45;31.48;98679.06;5084153;28;8855;-71
2022/09/15 06:44:22;;;;;;;;;8.60;8.60;;;;;30.54;31.57;98692.63;5084724;28;8855;-71
2022/09/15 06:46:51;;;;;;;;;8.20;5.80;;;;;30.62;32.25;98688.19;5086224;28;8872;-71
2022/09/15 06:49:20;;;;;;;;;9.40;7.40;;;;;30.65;30.94;98684.38;5086001;28;8848;-71
2022/09/15 06:51:50;;;;;;;;;8.20;8.20;;;;;30.58;30.75;98694.88;5084491;28;8928;-72
2022/09/15 06:54:19;;;;;;;;;7.20;7.20;;;;;30.61;30.81;98691.03;5051377;28;8848;-72
2022/09/15 06:56:48;;;;;;;;;7.00;7.00;;;;;30.65;31.81;98687.88;5087250;28;8847;-84
2022/09/15 06:59:17;;;;;;;;;9.80;9.60;;;;;30.53;31.70;98697.19;5094613;28;8839;-81
2022/09/15 07:01:52;;;;;;;;;10.20;10.00;;;;;30.58;31.78;98699.41;5092631;28;9002;-82
2022/09/15 07:04:22;;;;;;;;;12.80;12.80;;;;;30.52;32.09;98703.53;5091970;28;9546;-82
2022/09/15 07:06:51;;;;;;;;;9.00;7.00;;;;;30.62;32.38;98706.19;5091831;28;8890;-84
2022/09/15 07:09:20;;;;;;;;;7.60;7.60;;;;;30.50;32.15;98701.00;5073316;28;8858;-82
2022/09/15 07:11:48;;;;;;;;;8.00;8.00;;;;;30.65;32.07;98695.13;5074920;28;8814;-82
2022/09/15 07:14:17;;;;;;;;;8.00;7.20;;;;;30.80;32.24;98690.09;5076559;28;8991;-80
2022/09/15 07:16:46;;;;;;;;;7.80;7.80;;;;;30.84;32.23;98699.56;5060062;28;8858;-81
2022/09/15 07:19:14;;;;;;;;;8.40;7.80;;;;;30.88;32.17;98704.47;5093805;28;8838;-80
2022/09/15 07:21:43;;;;;;;;;6.20;6.20;;;;;31.02;32.03;98708.53;5077138;28;9000;-83
2022/09/15 07:24:13;;;;;;;;;7.60;7.60;;;;;31.19;31.99;98716.78;5026279;28;8853;-82
2022/09/15 07:26:42;;;;;;;;;7.20;6.80;;;;;31.20;31.25;98718.47;5076137;28;8850;-85
2022/09/15 07:29:11;;;;;;;;;6.40;6.40;;;;;31.33;31.43;98720.78;5077980;28;8990;-81
2022/09/15 07:31:39;;;;;;;;;8.40;7.80;;;;;31.26;31.27;98725.94;5075469;28;8930;-84
2022/09/15 07:34:08;;;;;;;;;7.60;7.60;;;;;31.36;31.40;98726.72;5056600;28;8851;-83
2022/09/15 07:36:37;;;;;;;;;8.00;8.00;;;;;31.23;31.13;98728.94;5073620;28;9002;-84
2022/09/15 07:39:06;;;;;;;;;10.20;9.20;;;;;30.93;31.48;98735.50;5040480;28;8928;-81
2022/09/15 07:41:36;;;;;;;;;8.20;7.20;;;;;31.21;31.06;98730.94;5091559;28;8845;-82
2022/09/15 07:44:07;;;;;;;;;8.80;8.20;;;;;31.40;31.65;98730.81;5074444;28;9648;-80
2022/09/15 07:46:35;;;;;;;;;11.20;9.40;;;;;31.56;31.22;98735.50;5078025;28;8849;-81
2022/09/15 07:49:05;;;;;;;;;7.20;7.20;;;;;31.50;30.87;98736.13;5071232;28;8990;-84
2022/09/15 07:51:34;;;;;;;;;13.60;12.60;;;;;31.51;30.94;98742.38;5095243;28;8905;-81
2022/09/15 07:54:02;;;;;;;;;11.00;10.00;;;;;31.70;30.97;98730.56;5069253;28;8830;-82
2022/09/15 07:56:31;;;;;;;;;10.40;10.00;;;;;31.77;30.94;98737.88;5066293;28;8830;-81
2022/09/15 07:59:01;;;;;;;;;11.00;10.60;;;;;31.49;31.14;98758.69;5098540;28;8952;-81
2022/09/15 08:01:30;;;;;;;;;16.80;15.80;;;;;31.36;31.46;98748.28;5079249;28;8862;-83
2022/09/15 08:03:58;;;;;;;;;9.40;8.80;;;;;31.23;31.08;98750.47;5096822;28;9642;-82
2022/09/15 08:06:27;;;;;;;;;9.00;9.00;;;;;31.48;31.12;98760.53;5078729;28;8934;-82
2022/09/15 08:08:56;;;;;;;;;7.20;7.20;;;;;31.61;31.08;98765.56;5062377;28;8854;-81
2022/09/15 08:11:29;;;;;;;;;9.00;8.00;;;;;31.85;30.80;98773.00;5062878;28;8835;-81
2022/09/15 08:14:02;;;;;;;;;8.60;8.60;;;;;31.72;30.39;98775.25;5075922;28;8846;-81
2022/09/15 08:16:31;;;;;;;;;11.00;10.00;;;;;31.92;30.38;98770.53;5074581;28;8865;-83
2022/09/15 08:18:59;;;;;;;;;10.80;8.80;;;;;31.95;30.50;98781.00;5073512;28;8866;-83
2022/09/15 08:21:28;;;;;;;;;8.80;7.80;;;;;31.85;30.32;98785.63;5074292;28;8850;-83
2022/09/15 08:23:58;;;;;;;;;11.20;11.00;;;;;31.92;30.61;98796.66;5072622;28;8866;-82
2022/09/15 08:26:29;;;;;;;;;10.60;9.80;;;;;31.63;30.85;98787.81;5088875;28;8846;-81
2022/09/15 08:28:59;;;;;;;;;10.60;9.80;;;;;31.22;31.67;98800.81;5056528;28;8870;-81
2022/09/15 08:31:29;;;;;;;;;10.40;10.40;;;;;31.63;31.53;98801.28;5106842;28;8842;-82
2022/09/15 08:34:02;;;;;;;;;11.60;11.60;;;;;31.82;31.14;98805.69;5091129;28;8855;-83
2022/09/15 08:36:31;;;;;;;;;11.60;10.20;;;;;32.14;30.99;98801.59;5081020;28;8842;-82
2022/09/15 08:38:59;;;;;;;;;10.60;10.60;;;;;32.03;31.39;98808.06;5079296;28;8854;-82
2022/09/15 08:41:32;;;;;;;;;13.40;11.80;;;;;31.84;31.06;98809.06;5104940;27;8891;-82
2022/09/15 08:44:04;;;;;;;;;11.00;11.00;;;;;31.95;31.55;98816.06;5091348;28;8931;-82
2022/09/15 08:46:38;;;;;;;;;13.40;12.40;;;;;31.69;31.29;98818.69;5092479;28;8935;-83
2022/09/15 08:49:12;;;;;;;;;10.60;10.00;;;;;31.67;31.63;98821.53;5091141;28;8910;-82
2022/09/15 08:51:46;;;;;;;;;12.00;11.40;;;;;31.31;32.54;98826.03;5074590;28;8874;-82
2022/09/15 08:54:21;;;;;;;;;10.00;10.00;;;;;30.88;33.56;98822.94;5076319;28;8917;-82
2022/09/15 08:56:50;;;;;;;;;13.80;11.80;;;;;31.22;33.43;98840.41;5072736;28;8953;-82
2022/09/15 08:59:20;;;;;;;;;11.20;10.20;;;;;31.12;33.60;98848.53;5107000;28;8885;-85
2022/09/15 09:02:04;;;;;;;;;11.60;9.00;;;;;31.32;33.54;98851.94;5089736;28;8942;-81
2022/09/15 09:04:47;;;;;;;;;8.80;8.20;;;;;31.73;33.33;98844.34;5021842;28;8846;-81
2022/09/15 09:07:35;;;;;;;;;10.40;10.40;;;;;31.96;33.05;98838.50;5039021;28;8915;-84
2022/09/15 09:10:15;;;;;;;;;10.00;9.60;;;;;31.59;33.53;98851.13;5071700;28;8846;-83
2022/09/15 09:13:01;;;;;;;;;8.80;8.80;;;;;31.36;33.94;98856.06;5091425;28;8966;-81
2022/09/15 09:15:43;;;;;;;;;10.80;9.60;;;;;31.69;33.82;98861.00;5073858;28;8850;-83
2022/09/15 09:18:45;;;;;;;;;13.80;12.60;;;;;31.19;35.04;98854.16;5073428;28;8857;-80
2022/09/15 09:21:23;;;;;;;;;11.20;10.20;;;;;30.83;35.73;98862.06;5056934;28;8845;-82
2022/09/15 09:24:01;;;;;;;;;6.60;6.20;;;;;29.90;35.24;98845.63;5056066;28;8850;-82
2022/09/15 09:26:32;;;;;;;;;9.20;9.20;;;;;29.89;35.76;98870.84;5057162;28;8830;-82
2022/09/15 09:29:05;;;;;;;;;10.00;8.80;;;;;29.03;37.70;98855.16;5101067;28;8955;-81
2022/09/15 09:31:36;;;;;;;;;5.00;5.00;;;;;27.65;41.28;98856.16;5074460;28;8919;-82
2022/09/15 09:34:20;;;;;;;;;8.80;8.80;;;;;27.75;41.64;98852.59;5073406;28;8859;-82
2022/09/15 09:36:55;;;;;;;;;12.20;10.40;;;;;27.75;41.38;98851.72;5090733;28;8819;-82
2022/09/15 09:39:23;;;;;;;;;9.40;9.40;;;;;27.95;43.04;98859.00;5090201;28;8930;-82
2022/09/15 09:41:54;;;;;;;;;10.00;8.60;;;;;28.06;42.35;98850.06;5090656;28;8851;-83
2022/09/15 09:44:30;;;;;;;;;9.00;9.00;;;;;28.26;42.13;98831.44;5087838;28;8982;-83
2022/09/15 09:47:00;;;;;;;;;10.20;8.00;;;;;28.29;41.98;98823.97;5105063;28;8878;-82
2022/09/15 09:49:34;;;;;;;;;11.20;10.00;;;;;28.64;41.09;98814.75;5071370;28;8964;-82
2022/09/15 09:52:04;;;;;;;;;12.40;11.40;;;;;28.62;41.28;98800.63;5070990;28;8860;-80
2022/09/15 09:54:34;;;;;;;;;11.60;9.80;;;;;28.92;40.77;98789.03;5070354;28;8850;-82
2022/09/15 09:57:27;;;;;;;;;11.20;10.80;;;;;28.89;40.42;98780.38;5087070;28;8908;-81
2022/09/15 09:59:55;;;;;;;;;9.80;9.80;;;;;29.42;39.79;98763.97;5087061;28;8838;-83
2022/09/15 10:02:25;;;;;;;;;6.60;6.60;;;;;29.66;38.97;98744.75;5087647;28;8842;-81
2022/09/15 10:05:17;;;;;;;;;8.00;6.40;;;;;30.04;38.03;98736.78;5070297;28;8854;-83
2022/09/15 10:08:06;;;;;;;;;12.00;10.20;;;;;30.44;37.36;98735.75;5046322;28;8869;-82
2022/09/15 10:10:34;;;;;;;;;14.60;14.00;;;;;30.50;36.92;98725.22;5029553;28;8905;-81
2022/09/15 10:13:03;;;;;;;;;11.80;10.20;;;;;30.44;37.26;98714.22;5028864;28;8850;-83
2022/09/15 10:15:34;;;;;;;;;10.40;8.60;;;;;30.18;37.07;98704.06;5045545;28;8869;-81
2022/09/15 10:18:04;;;;;;;;;9.60;9.00;;;;;30.37;36.82;98678.97;5029154;28;8834;-84
2022/09/15 10:20:38;;;;;;;;;9.60;9.20;;;;;30.82;36.46;98686.22;5046198;28;9071;-83
2022/09/15 10:23:24;;;;;;;;;11.20;10.20;;;;;31.28;35.29;98678.13;5031082;28;8869;-83
2022/09/15 10:25:57;;;;;;;;;7.80;7.20;;;;;31.55;34.68;98676.38;5016778;28;8877;-83
2022/09/15 10:28:28;;;;;;;;;8.00;8.00;;;;;31.56;34.28;98678.06;4992813;28;8861;-82
2022/09/15 10:31:05;;;;;;;;;9.80;9.40;;;;;31.93;34.02;98676.97;5008245;28;8846;-83
2022/09/15 10:33:35;;;;;;;;;9.80;9.60;;;;;32.12;33.66;98674.09;4990833;28;9009;-83
2022/09/15 10:36:11;;;;;;;;;10.20;9.00;;;;;32.44;33.53;98673.41;4989525;28;8878;-82
2022/09/15 10:38:43;;;;;;;;;13.20;11.20;;;;;32.40;33.81;98655.84;5011445;28;8970;-84
2022/09/15 10:41:22;;;;;;;;;12.40;10.60;;;;;32.73;32.99;98634.38;5089676;28;8832;-82
2022/09/15 10:44:03;;;;;;;;;11.40;9.60;;;;;32.72;32.07;98648.03;5090553;28;8912;-82
2022/09/15 10:46:45;;;;;;;;;11.40;9.60;;;;;32.28;32.48;98649.03;5103923;28;8972;-81
2022/09/15 10:49:32;;;;;;;;;10.20;8.80;;;;;32.31;33.32;98651.44;5074323;28;8854;-83
2022/09/15 10:52:13;;;;;;;;;9.80;9.00;;;;;32.67;33.08;98635.06;5086118;28;8856;-81
2022/09/15 10:55:07;;;;;;;;;9.00;8.60;;;;;32.95;32.09;98637.44;5076684;28;8872;-82
2022/09/15 10:57:56;;;;;;;;;8.00;6.60;;;;;33.31;31.76;98624.53;5099041;28;8952;-82
2022/09/15 11:00:28;;;;;;;;;7.60;7.60;;;;;33.48;31.61;98611.84;5093397;28;8840;-81
2022/09/15 11:03:24;;;;;;;;;6.20;6.00;;;;;33.73;31.43;98619.94;5076447;28;8878;-84
2022/09/15 11:06:05;;;;;;;;;7.60;6.60;;;;;33.77;30.86;98619.41;5093186;28;8864;-81
2022/09/15 11:08:53;;;;;;;;;6.40;6.40;;;;;33.91;30.99;98636.78;5092886;28;8855;-81
2022/09/15 11:11:33;;;;;;;;;8.20;7.60;;;;;33.51;30.56;98643.94;5075328;28;8836;-83
2022/09/15 11:14:18;;;;;;;;;10.00;7.80;;;;;33.97;31.03;98637.97;5091293;28;8874;-80
2022/09/15 11:17:06;;;;;;;;;8.00;8.00;;;;;34.17;30.03;98620.34;5090780;28;8847;-84
2022/09/15 11:19:55;;;;;;;;;11.40;11.40;;;;;33.72;30.51;98623.66;5088205;28;8973;-83
2022/09/15 11:22:28;;;;;;;;;9.60;8.60;;;;;34.08;30.82;98618.66;5089379;28;8872;-81
2022/09/15 11:25:01;;;;;;;;;9.20;7.80;;;;;34.15;30.02;98624.22;5056279;28;8866;-79
2022/09/15 11:27:36;;;;;;;;;11.80;9.80;;;;;34.35;29.97;98619.28;5089443;28;9732;-81
2022/09/15 11:30:07;;;;;;;;;10.00;9.60;;;;;34.44;29.78;98618.19;5071470;28;8984;-81
2022/09/15 11:32:43;;;;;;;;;7.40;6.80;;;;;33.99;29.66;98614.31;5088460;28;8853;-82
2022/09/15 11:35:28;;;;;;;;;9.00;9.00;;;;;34.27;28.80;98609.31;5087448;28;8869;-82
2022/09/15 11:38:01;;;;;;;;;7.60;7.00;;;;;34.26;28.97;98602.22;5089469;28;8974;-82
2022/09/15 11:40:37;;;;;;;;;7.80;7.80;;;;;34.48;28.60;98584.34;5107625;28;8893;-82
2022/09/15 11:43:17;;;;;;;;;8.00;8.00;;;;;34.83;28.47;98579.41;5107548;28;8855;-83
2022/09/15 11:45:51;;;;;;;;;9.60;7.40;;;;;35.07;27.87;98572.94;5092272;28;8960;-82
2022/09/15 11:48:28;;;;;;;;;8.00;7.20;;;;;35.06;27.56;98567.72;5087493;28;8850;-84
2022/09/15 11:51:01;;;;;;;;;8.20;6.80;;;;;35.33;28.00;98588.84;5071753;28;8931;-82
2022/09/15 11:53:38;;;;;;;;;8.00;7.60;;;;;35.36;27.40;98595.78;5087145;28;8854;-84
2022/09/15 11:56:15;;;;;;;;;8.00;7.00;;;;;35.34;27.35;98606.78;5071711;28;8842;-85
2022/09/15 11:59:00;;;;;;;;;7.00;7.00;;;;;35.72;27.09;98598.66;5069668;28;8996;-82
2022/09/15 12:01:32;;;;;;;;;8.00;8.00;;;;;35.95;27.50;98615.88;5075649;28;8866;-83
2022/09/15 12:04:08;;;;;;;;;4.60;3.80;;;;;34.75;28.56;98607.41;5052264;28;8892;-83
2022/09/15 12:06:44;;;;;;;;;8.20;7.60;;;;;35.26;28.31;98609.59;5069575;28;8885;-83
2022/09/15 12:09:16;;;;;;;;;7.40;7.40;;;;;35.04;27.94;98607.69;5086425;28;8881;-81